createdAt,value
2022-11-30T00:02:29.891Z,49.54
2022-11-30T00:05:24.582Z,49.47
2022-11-30T00:08:19.297Z,49.46
2022-11-30T00:11:17.896Z,49.42
2022-11-30T00:14:12.876Z,49.47
2022-11-30T00:17:07.844Z,49.48
2022-11-30T00:20:05.105Z,49.39
2022-11-30T00:23:01.141Z,49.34
2022-11-30T00:25:54.189Z,49.36
2022-11-30T00:28:49.946Z,49.38
2022-11-30T00:31:45.568Z,49.23
2022-11-30T00:34:40.344Z,49.21
2022-11-30T00:37:34.945Z,49.23
2022-11-30T00:40:29.699Z,49.10
2022-11-30T00:43:24.451Z,49.22
2022-11-30T00:46:19.160Z,49.20
2022-11-30T00:49:14.814Z,49.17
2022-11-30T00:52:09.493Z,49.17
2022-11-30T00:55:04.498Z,49.19
2022-11-30T00:57:59.370Z,49.08
2022-11-30T01:00:54.317Z,49.20
2022-11-30T01:03:49.078Z,49.18
2022-11-30T01:06:43.724Z,49.13
2022-11-30T01:09:38.499Z,49.20
2022-11-30T01:12:34.070Z,49.15
2022-11-30T01:15:29.474Z,49.21
2022-11-30T01:18:24.397Z,49.10
2022-11-30T01:21:21.295Z,49.18
2022-11-30T01:24:16.226Z,49.15
2022-11-30T01:27:11.686Z,49.03
2022-11-30T01:30:07.895Z,49.06
2022-11-30T01:33:06.219Z,49.07
2022-11-30T01:36:10.688Z,49.03
2022-11-30T01:39:05.814Z,48.92
2022-11-30T01:42:00.525Z,49.03
2022-11-30T01:45:01.238Z,49.06
2022-11-30T01:47:56.914Z,49.00
2022-11-30T01:50:51.652Z,49.03
2022-11-30T01:53:46.315Z,49.06
2022-11-30T01:56:42.730Z,49.09
2022-11-30T01:59:37.422Z,48.98
2022-11-30T02:02:35.640Z,49.04
2022-11-30T02:05:30.915Z,49.09
2022-11-30T02:08:25.836Z,49.12
2022-11-30T02:11:20.931Z,49.07
2022-11-30T02:14:28.449Z,48.97
2022-11-30T02:17:28.690Z,49.00
2022-11-30T02:20:47.051Z,48.92
2022-11-30T02:24:13.037Z,49.00
2022-11-30T02:27:29.683Z,49.03
2022-11-30T02:30:25.220Z,49.02
2022-11-30T02:33:22.070Z,49.00
2022-11-30T02:36:17.065Z,49.01
2022-11-30T02:39:12.646Z,49.02
2022-11-30T02:42:10.795Z,48.80
2022-11-30T02:45:08.073Z,48.80
2022-11-30T02:48:08.948Z,48.89
2022-11-30T02:51:05.123Z,48.91
2022-11-30T02:53:58.534Z,48.94
2022-11-30T02:56:53.630Z,48.98
2022-11-30T02:59:48.230Z,48.95
2022-11-30T03:02:43.258Z,48.97
2022-11-30T03:05:38.237Z,49.02
2022-11-30T03:08:33.142Z,48.99
2022-11-30T03:11:27.681Z,48.95
2022-11-30T03:14:22.329Z,48.94
2022-11-30T03:17:16.978Z,48.87
2022-11-30T03:20:13.737Z,48.90
2022-11-30T03:23:08.492Z,48.90
2022-11-30T03:26:04.126Z,48.87
2022-11-30T03:28:58.739Z,48.83
2022-11-30T03:31:53.461Z,48.87
2022-11-30T03:34:48.649Z,48.90
2022-11-30T03:37:43.633Z,48.75
2022-11-30T03:40:38.798Z,48.80
2022-11-30T03:43:34.066Z,48.79
2022-11-30T03:46:28.839Z,48.83
2022-11-30T03:49:24.013Z,48.72
2022-11-30T03:52:18.788Z,48.76
2022-11-30T03:55:15.574Z,48.75
2022-11-30T03:58:10.210Z,48.66
2022-11-30T04:01:07.904Z,48.77
2022-11-30T04:04:02.621Z,48.74
2022-11-30T04:06:57.324Z,48.82
2022-11-30T04:09:52.058Z,48.72
2022-11-30T04:12:46.848Z,48.79
2022-11-30T04:15:41.920Z,48.77
2022-11-30T04:18:37.510Z,48.78
2022-11-30T04:21:32.766Z,48.80
2022-11-30T04:24:27.727Z,48.86
2022-11-30T04:27:22.349Z,48.88
2022-11-30T04:30:19.603Z,48.83
2022-11-30T04:33:14.535Z,48.89
2022-11-30T04:36:16.947Z,48.79
2022-11-30T04:39:11.763Z,48.79
2022-11-30T04:42:06.956Z,48.82
2022-11-30T04:45:01.748Z,48.86
2022-11-30T04:47:56.459Z,48.84
2022-11-30T04:50:51.439Z,48.78
2022-11-30T04:53:46.038Z,48.78
2022-11-30T04:56:40.858Z,48.77
2022-11-30T04:59:35.628Z,48.80
2022-11-30T05:02:31.917Z,48.83
2022-11-30T05:05:27.070Z,48.93
2022-11-30T05:08:22.115Z,48.95
2022-11-30T05:11:16.817Z,48.98
2022-11-30T05:14:11.879Z,48.99
2022-11-30T05:17:06.642Z,49.04
2022-11-30T05:20:01.385Z,49.01
2022-11-30T05:22:56.374Z,49.02
2022-11-30T05:25:51.128Z,49.00
2022-11-30T05:28:46.095Z,48.95
2022-11-30T05:31:42.540Z,48.94
2022-11-30T05:34:49.607Z,48.99
2022-11-30T05:37:45.588Z,49.00
2022-11-30T05:40:40.444Z,48.92
2022-11-30T05:43:35.169Z,48.96
2022-11-30T05:46:29.941Z,48.96
2022-11-30T05:49:24.891Z,48.79
2022-11-30T05:52:19.630Z,48.92
2022-11-30T05:55:14.539Z,48.70
2022-11-30T05:58:09.217Z,48.93
2022-11-30T06:01:04.293Z,48.85
2022-11-30T06:04:09.061Z,48.95
2022-11-30T06:07:12.778Z,49.09
2022-11-30T06:10:09.518Z,49.08
2022-11-30T06:13:09.879Z,49.09
2022-11-30T06:16:05.643Z,48.82
2022-11-30T06:19:00.407Z,48.92
2022-11-30T06:21:55.229Z,48.91
2022-11-30T06:24:50.082Z,48.98
2022-11-30T06:27:44.949Z,48.96
2022-11-30T06:30:39.789Z,48.94
2022-11-30T06:33:34.853Z,48.92
2022-11-30T06:36:35.550Z,48.96
2022-11-30T06:40:04.203Z,48.98
2022-11-30T06:42:46.664Z,48.88
2022-11-30T06:45:41.460Z,48.89
2022-11-30T06:48:36.569Z,48.79
2022-11-30T06:51:31.444Z,48.85
2022-11-30T06:54:26.312Z,48.79
2022-11-30T06:57:21.329Z,48.90
2022-11-30T07:00:20.419Z,48.87
2022-11-30T07:03:15.586Z,48.84
2022-11-30T07:06:14.178Z,48.87
2022-11-30T07:09:10.555Z,48.92
2022-11-30T07:12:06.052Z,48.92
2022-11-30T07:15:00.616Z,48.87
2022-11-30T07:17:55.284Z,48.99
2022-11-30T07:20:49.994Z,49.01
2022-11-30T07:24:02.511Z,48.90
2022-11-30T07:26:57.792Z,48.91
2022-11-30T07:29:52.758Z,48.94
2022-11-30T07:32:47.473Z,48.90
2022-11-30T07:35:42.427Z,48.84
2022-11-30T07:38:37.137Z,48.89
2022-11-30T07:41:31.947Z,48.73
2022-11-30T07:44:29.570Z,48.83
2022-11-30T07:47:24.415Z,48.87
2022-11-30T07:50:19.751Z,48.85
2022-11-30T07:53:14.495Z,48.89
2022-11-30T07:56:11.305Z,48.74
2022-11-30T07:59:06.304Z,48.79
2022-11-30T08:02:01.851Z,48.74
2022-11-30T08:04:58.914Z,48.76
2022-11-30T08:07:57.560Z,48.84
2022-11-30T08:10:52.446Z,48.87
2022-11-30T08:13:47.258Z,48.93
2022-11-30T08:16:44.286Z,48.97
2022-11-30T08:19:39.224Z,48.93
2022-11-30T08:22:34.689Z,48.94
2022-11-30T08:25:31.691Z,48.99
2022-11-30T08:28:26.503Z,49.03
2022-11-30T08:31:23.606Z,48.94
2022-11-30T08:34:18.760Z,49.07
2022-11-30T08:37:13.523Z,49.18
2022-11-30T08:40:10.903Z,49.15
2022-11-30T08:43:05.768Z,49.16
2022-11-30T08:46:00.728Z,49.05
2022-11-30T08:49:19.657Z,48.91
2022-11-30T08:52:19.240Z,49.12
2022-11-30T08:55:14.410Z,49.22
2022-11-30T08:58:09.061Z,49.32
2022-11-30T09:01:12.936Z,49.49
2022-11-30T09:04:07.960Z,49.61
2022-11-30T09:07:03.807Z,49.85
2022-11-30T09:10:00.202Z,49.87
2022-11-30T09:12:53.281Z,49.67
2022-11-30T09:15:47.990Z,49.67
2022-11-30T09:18:43.157Z,49.81
2022-11-30T09:21:38.449Z,49.90
2022-11-30T09:24:33.079Z,49.85
2022-11-30T09:27:30.533Z,49.90
2022-11-30T09:30:25.744Z,49.92
2022-11-30T09:33:21.929Z,49.88
2022-11-30T09:36:16.637Z,49.82
2022-11-30T09:39:13.844Z,49.79
2022-11-30T09:42:39.493Z,49.75
2022-11-30T09:45:35.381Z,49.73
2022-11-30T09:48:38.543Z,49.74
2022-11-30T09:51:43.985Z,49.68
2022-11-30T09:54:42.628Z,49.67
2022-11-30T09:57:44.981Z,49.65
2022-11-30T10:00:40.309Z,49.65
2022-11-30T10:03:35.864Z,49.53
2022-11-30T10:06:39.924Z,49.75
2022-11-30T10:09:49.494Z,50.12
2022-11-30T10:13:10.410Z,50.57
2022-11-30T10:16:18.920Z,50.73
2022-11-30T10:19:21.979Z,51.09
2022-11-30T10:22:23.174Z,51.34
2022-11-30T10:25:20.751Z,51.45
2022-11-30T10:28:46.686Z,51.60
2022-11-30T10:31:45.896Z,51.71
2022-11-30T10:34:50.404Z,51.92
2022-11-30T10:37:48.816Z,52.03
2022-11-30T10:40:54.558Z,52.14
2022-11-30T10:43:58.974Z,52.22
2022-11-30T10:46:59.712Z,52.23
2022-11-30T10:50:01.518Z,52.44
2022-11-30T10:53:03.728Z,52.63
2022-11-30T10:56:09.779Z,52.62
2022-11-30T10:59:11.497Z,52.73
2022-11-30T11:02:42.176Z,52.77
2022-11-30T11:05:46.549Z,52.79
2022-11-30T11:08:47.113Z,52.86
2022-11-30T11:11:48.820Z,52.91
2022-11-30T11:14:47.755Z,52.85
2022-11-30T11:17:47.031Z,52.94
2022-11-30T11:20:50.107Z,52.84
2022-11-30T11:23:54.376Z,52.86
2022-11-30T11:26:56.069Z,52.79
2022-11-30T11:30:19.806Z,52.77
2022-11-30T11:33:26.265Z,52.76
2022-11-30T11:36:29.883Z,52.80
2022-11-30T11:39:32.580Z,52.68
2022-11-30T11:42:38.919Z,52.76
2022-11-30T11:45:42.404Z,52.72
2022-11-30T11:48:49.944Z,52.68
2022-11-30T11:51:52.238Z,52.68
2022-11-30T11:54:54.907Z,52.69
2022-11-30T11:57:56.655Z,52.67
2022-11-30T12:01:17.180Z,52.62
2022-11-30T12:04:31.559Z,52.62
2022-11-30T12:07:30.915Z,52.59
2022-11-30T12:13:50.368Z,52.71
2022-11-30T12:17:01.933Z,52.72
2022-11-30T12:20:01.482Z,52.65
2022-11-30T12:26:34.949Z,52.61
2022-11-30T12:29:34.719Z,52.68
2022-11-30T12:32:47.869Z,52.62
2022-11-30T12:35:52.344Z,52.61
2022-11-30T12:38:53.243Z,52.63
2022-11-30T12:41:55.968Z,52.60
2022-11-30T12:45:06.185Z,52.59
2022-11-30T12:48:18.435Z,52.62
2022-11-30T12:51:29.721Z,52.62
2022-11-30T12:54:37.507Z,52.61
2022-11-30T12:57:44.485Z,52.64
2022-11-30T13:00:57.593Z,52.66
2022-11-30T13:04:04.913Z,52.61
2022-11-30T13:07:09.062Z,52.62
2022-11-30T13:10:19.545Z,52.62
2022-11-30T13:13:21.041Z,52.56
2022-11-30T13:16:21.053Z,52.58
2022-11-30T13:19:46.008Z,52.63
2022-11-30T13:22:50.129Z,52.56
2022-11-30T13:29:26.099Z,52.52
2022-11-30T13:32:56.240Z,52.50
2022-11-30T13:35:57.735Z,52.47
2022-11-30T13:39:28.082Z,52.46
2022-11-30T13:42:40.489Z,52.42
2022-11-30T13:45:42.626Z,52.40
2022-11-30T13:48:45.650Z,52.39
2022-11-30T13:51:44.682Z,52.39
2022-11-30T13:54:45.433Z,52.40
2022-11-30T13:58:10.372Z,52.38
2022-11-30T14:01:30.465Z,52.37
2022-11-30T14:04:38.702Z,52.35
2022-11-30T14:07:42.074Z,52.33
2022-11-30T14:10:45.135Z,52.31
2022-11-30T14:13:47.241Z,52.28
2022-11-30T14:16:48.565Z,52.26
2022-11-30T14:19:53.772Z,52.23
2022-11-30T14:22:56.097Z,52.22
2022-11-30T14:26:11.407Z,52.21
2022-11-30T14:29:19.991Z,52.17
2022-11-30T14:32:17.433Z,52.13
2022-11-30T14:35:16.917Z,52.14
2022-11-30T14:38:23.814Z,52.13
2022-11-30T14:41:28.276Z,52.05
2022-11-30T14:44:23.149Z,52.09
2022-11-30T14:47:26.723Z,52.13
2022-11-30T14:50:28.051Z,52.15
2022-11-30T14:53:35.241Z,52.26
2022-11-30T14:56:40.790Z,52.31
2022-11-30T14:59:49.240Z,52.46
2022-11-30T15:03:05.364Z,52.45
2022-11-30T15:06:05.738Z,52.45
2022-11-30T15:09:07.710Z,52.51
2022-11-30T15:12:10.248Z,52.54
2022-11-30T15:15:27.997Z,52.51
2022-11-30T15:18:29.771Z,52.51
2022-11-30T15:21:33.285Z,52.50
2022-11-30T15:24:33.161Z,52.46
2022-11-30T15:27:36.619Z,52.44
2022-11-30T15:30:40.758Z,52.42
2022-11-30T15:33:37.970Z,52.48
2022-11-30T15:36:58.292Z,52.45
2022-11-30T15:40:02.128Z,52.43
2022-11-30T15:43:03.601Z,52.42
2022-11-30T15:46:05.748Z,52.39
2022-11-30T15:49:28.349Z,52.34
2022-11-30T15:52:28.540Z,52.30
2022-11-30T15:55:46.911Z,52.24
2022-11-30T15:59:07.472Z,52.18
2022-11-30T16:02:25.002Z,52.10
2022-11-30T16:05:31.107Z,52.02
2022-11-30T16:08:35.137Z,51.92
2022-11-30T16:11:37.815Z,51.88
2022-11-30T16:14:41.608Z,51.86
2022-11-30T16:17:43.824Z,51.86
2022-11-30T16:20:43.549Z,51.86
2022-11-30T16:23:42.275Z,51.86
2022-11-30T16:26:50.870Z,51.84
2022-11-30T16:29:55.398Z,51.83
2022-11-30T16:32:50.741Z,51.82
2022-11-30T16:35:57.992Z,51.80
2022-11-30T16:38:59.583Z,51.75
2022-11-30T16:42:01.758Z,51.65
2022-11-30T16:45:03.538Z,51.56
2022-11-30T16:48:05.510Z,51.47
2022-11-30T16:51:10.614Z,51.40
2022-11-30T16:54:10.353Z,51.24
2022-11-30T16:57:12.226Z,51.17
2022-11-30T17:00:17.365Z,51.16
2022-11-30T17:03:24.596Z,51.14
2022-11-30T17:06:26.550Z,51.12
2022-11-30T17:09:30.621Z,51.04
2022-11-30T17:12:25.733Z,51.00
2022-11-30T17:15:47.909Z,50.89
2022-11-30T17:18:43.034Z,50.83
2022-11-30T17:21:40.371Z,50.75
2022-11-30T17:24:42.974Z,50.70
2022-11-30T17:27:45.134Z,50.64
2022-11-30T17:30:40.412Z,50.61
2022-11-30T17:33:48.085Z,50.50
2022-11-30T17:36:51.945Z,50.54
2022-11-30T17:39:47.088Z,50.51
2022-11-30T17:42:41.949Z,50.54
2022-11-30T17:45:37.044Z,50.59
2022-11-30T17:48:32.431Z,50.68
2022-11-30T17:51:40.336Z,50.80
2022-11-30T17:54:35.262Z,50.95
2022-11-30T17:57:30.043Z,51.08
2022-11-30T18:00:27.229Z,51.18
2022-11-30T18:03:21.981Z,51.22
2022-11-30T18:06:17.173Z,51.23
2022-11-30T18:09:12.831Z,51.24
2022-11-30T18:12:08.537Z,51.25
2022-11-30T18:15:03.525Z,51.25
2022-11-30T18:18:01.258Z,51.24
2022-11-30T18:20:56.326Z,51.22
2022-11-30T18:23:51.785Z,51.22
2022-11-30T18:26:46.876Z,51.24
2022-11-30T18:29:45.448Z,51.26
2022-11-30T18:32:46.365Z,51.27
2022-11-30T18:35:41.584Z,51.26
2022-11-30T18:38:38.724Z,51.18
2022-11-30T18:41:34.174Z,51.09
2022-11-30T18:44:29.356Z,51.09
2022-11-30T18:47:30.291Z,51.08
2022-11-30T18:50:25.598Z,51.05
2022-11-30T18:53:20.509Z,51.02
2022-11-30T18:56:21.038Z,51.00
2022-11-30T18:59:19.741Z,50.95
2022-11-30T19:02:15.367Z,50.92
2022-11-30T19:05:13.560Z,50.84
2022-11-30T19:08:12.072Z,50.62
2022-11-30T19:11:08.815Z,50.57
2022-11-30T19:14:04.643Z,50.25
2022-11-30T19:17:00.771Z,50.40
2022-11-30T19:19:56.031Z,50.44
2022-11-30T19:22:55.182Z,50.44
2022-11-30T19:25:50.163Z,50.54
2022-11-30T19:28:51.635Z,50.53
2022-11-30T19:31:50.870Z,50.50
2022-11-30T19:34:46.295Z,50.41
2022-11-30T19:37:41.396Z,50.64
2022-11-30T19:40:38.025Z,50.68
2022-11-30T19:43:39.453Z,50.78
2022-11-30T19:46:42.861Z,50.85
2022-11-30T19:49:41.477Z,50.82
2022-11-30T19:52:36.372Z,50.84
2022-11-30T19:55:31.279Z,50.80
2022-11-30T19:58:33.551Z,50.78
2022-11-30T20:01:29.441Z,50.74
2022-11-30T20:04:25.266Z,50.76
2022-11-30T20:07:26.567Z,50.75
2022-11-30T20:10:30.632Z,50.74
2022-11-30T20:13:32.939Z,50.69
2022-11-30T20:16:31.615Z,50.65
2022-11-30T20:19:33.759Z,50.62
2022-11-30T20:22:29.402Z,50.60
2022-11-30T20:26:48.063Z,50.65
2022-11-30T20:29:39.712Z,50.60
2022-11-30T20:32:30.712Z,50.58
2022-11-30T20:35:30.595Z,50.56
2022-11-30T20:38:23.350Z,50.49
2022-11-30T20:41:21.510Z,50.53
2022-11-30T20:44:15.723Z,50.49
2022-11-30T20:47:11.155Z,50.45
2022-11-30T20:50:07.640Z,50.49
2022-11-30T20:53:02.625Z,50.43
2022-11-30T20:56:02.341Z,50.41
2022-11-30T20:59:02.622Z,50.37
2022-11-30T21:02:02.885Z,50.34
2022-11-30T21:04:57.518Z,50.30
2022-11-30T21:07:54.701Z,50.31
2022-11-30T21:10:49.445Z,50.28
2022-11-30T21:13:48.152Z,50.25
2022-11-30T21:16:47.384Z,50.18
2022-11-30T21:19:44.763Z,50.19
2022-11-30T21:22:42.716Z,50.15
2022-11-30T21:25:38.300Z,50.14
2022-11-30T21:28:38.280Z,50.16
2022-11-30T21:31:36.163Z,50.09
2022-11-30T21:34:33.903Z,50.11
2022-11-30T21:37:28.508Z,50.08
2022-11-30T21:40:25.575Z,50.03
2022-11-30T21:43:23.013Z,50.02
2022-11-30T21:46:21.295Z,50.00
2022-11-30T21:49:18.726Z,50.00
2022-11-30T21:52:16.425Z,49.94
2022-11-30T21:55:13.533Z,49.90
2022-11-30T21:58:05.386Z,49.87
2022-11-30T22:01:03.065Z,49.84
2022-11-30T22:03:55.177Z,49.89
2022-11-30T22:06:45.664Z,49.86
2022-11-30T22:09:42.425Z,49.81
2022-11-30T22:12:39.367Z,49.79
2022-11-30T22:15:29.895Z,49.87
2022-11-30T22:18:20.564Z,49.92
2022-11-30T22:21:18.371Z,49.89
2022-11-30T22:24:13.376Z,49.90
2022-11-30T22:27:04.316Z,49.87
2022-11-30T22:30:01.639Z,49.86
2022-11-30T22:32:55.583Z,49.87
2022-11-30T22:35:49.533Z,49.85
2022-11-30T22:38:43.371Z,49.83
2022-11-30T22:41:40.472Z,49.82
2022-11-30T22:44:38.159Z,49.77
2022-11-30T22:47:36.457Z,49.75
2022-11-30T22:50:35.084Z,49.76
2022-11-30T22:53:32.619Z,49.72
2022-11-30T22:56:27.701Z,49.72
2022-11-30T22:59:25.387Z,49.72
2022-11-30T23:02:19.420Z,49.67
2022-11-30T23:05:16.901Z,49.71
2022-11-30T23:08:08.112Z,49.60
2022-11-30T23:11:07.089Z,49.59
2022-11-30T23:14:07.418Z,49.62
2022-11-30T23:17:07.216Z,49.53
2022-11-30T23:20:05.950Z,49.55
2022-11-30T23:23:03.504Z,49.53
2022-11-30T23:25:57.384Z,49.52
2022-11-30T23:28:55.899Z,49.55
2022-11-30T23:31:53.450Z,49.49
2022-11-30T23:34:50.673Z,49.50
2022-11-30T23:37:48.416Z,49.49
2022-11-30T23:40:45.394Z,49.50
2022-11-30T23:43:39.533Z,49.48
2022-11-30T23:46:33.502Z,49.42
2022-11-30T23:49:24.611Z,49.41
2022-11-30T23:52:21.861Z,49.39
2022-11-30T23:55:12.624Z,49.40
2022-11-30T23:58:03.192Z,49.36
